createdAt,value
2023-02-05T00:00:04.052Z,98840.56
2023-02-05T00:02:30.613Z,98838.00
2023-02-05T00:04:57.090Z,98840.47
2023-02-05T00:07:23.930Z,98846.59
2023-02-05T00:09:50.405Z,98847.53
2023-02-05T00:12:16.857Z,98839.09
2023-02-05T00:14:43.368Z,98835.69
2023-02-05T00:17:09.865Z,98829.72
2023-02-05T00:19:36.452Z,98833.09
2023-02-05T00:22:02.919Z,98830.69
2023-02-05T00:24:29.372Z,98828.84
2023-02-05T00:26:56.079Z,98832.44
2023-02-05T00:29:22.594Z,98834.47
2023-02-05T00:31:49.649Z,98836.94
2023-02-05T00:34:17.055Z,98826.72
2023-02-05T00:36:43.500Z,98830.00
2023-02-05T00:39:11.392Z,98828.28
2023-02-05T00:41:38.652Z,98819.75
2023-02-05T00:44:05.403Z,98826.63
2023-02-05T00:46:31.831Z,98826.63
2023-02-05T00:48:58.551Z,98826.06
2023-02-05T00:51:25.007Z,98826.88
2023-02-05T00:53:51.530Z,98821.78
2023-02-05T00:56:18.050Z,98818.28
2023-02-05T00:58:47.773Z,98819.81
2023-02-05T01:01:15.517Z,98815.53
2023-02-05T01:03:42.233Z,98813.13
2023-02-05T01:06:09.303Z,98811.31
2023-02-05T01:08:36.256Z,98808.22
2023-02-05T01:11:07.590Z,98828.94
2023-02-05T01:13:34.357Z,98836.94
2023-02-05T01:16:00.883Z,98833.63
2023-02-05T01:18:27.616Z,98837.81
2023-02-05T01:20:54.101Z,98836.19
2023-02-05T01:23:20.616Z,98839.47
2023-02-05T01:25:47.267Z,98829.91
2023-02-05T01:28:14.141Z,98836.72
2023-02-05T01:30:40.684Z,98827.44
2023-02-05T01:33:07.149Z,98828.66
2023-02-05T01:35:33.996Z,98826.19
2023-02-05T01:38:00.709Z,98822.91
2023-02-05T01:40:27.239Z,98831.59
2023-02-05T01:42:53.812Z,98825.53
2023-02-05T01:45:23.344Z,98813.50
2023-02-05T01:47:50.759Z,98819.59
2023-02-05T01:50:20.711Z,98809.53
2023-02-05T01:52:47.292Z,98816.38
2023-02-05T01:55:14.612Z,98813.69
2023-02-05T01:57:41.785Z,98808.97
2023-02-05T02:00:10.010Z,98818.31
2023-02-05T02:02:37.913Z,98816.63
2023-02-05T02:05:11.560Z,98807.91
2023-02-05T02:07:38.239Z,98798.13
2023-02-05T02:10:06.079Z,98801.44
2023-02-05T02:12:35.312Z,98806.69
2023-02-05T02:15:10.572Z,98800.78
2023-02-05T02:17:41.051Z,98800.81
2023-02-05T02:20:14.628Z,98794.75
2023-02-05T02:22:56.224Z,98801.09
2023-02-05T02:25:43.726Z,98792.06
2023-02-05T02:28:31.669Z,98786.03
2023-02-05T02:31:16.702Z,98781.66
2023-02-05T02:34:00.270Z,98777.63
2023-02-05T02:36:58.560Z,98770.81
2023-02-05T02:39:40.075Z,98775.13
2023-02-05T02:42:15.253Z,98774.31
2023-02-05T02:44:48.978Z,98763.84
2023-02-05T02:47:22.008Z,98756.00
2023-02-05T02:50:08.648Z,98749.06
2023-02-05T02:52:40.309Z,98749.25
2023-02-05T02:55:11.115Z,98745.91
2023-02-05T02:57:40.406Z,98745.97
2023-02-05T03:00:16.344Z,98734.13
2023-02-05T03:02:45.423Z,98737.88
2023-02-05T03:05:17.613Z,98743.84
2023-02-05T03:07:52.829Z,98741.34
2023-02-05T03:10:40.924Z,98737.69
2023-02-05T03:13:10.220Z,98747.03
2023-02-05T03:15:38.609Z,98746.09
2023-02-05T03:18:05.511Z,98745.50
2023-02-05T03:20:38.886Z,98747.78
2023-02-05T03:23:05.429Z,98741.69
2023-02-05T03:25:31.959Z,98743.50
2023-02-05T03:27:59.231Z,98747.81
2023-02-05T03:30:33.471Z,98746.97
2023-02-05T03:33:15.892Z,98741.84
2023-02-05T03:35:52.995Z,98743.66
2023-02-05T03:38:32.252Z,98742.56
2023-02-05T03:41:10.083Z,98741.00
2023-02-05T03:43:48.529Z,98739.31
2023-02-05T03:46:24.894Z,98743.53
2023-02-05T03:49:06.980Z,98733.22
2023-02-05T03:51:33.295Z,98736.81
2023-02-05T03:54:26.515Z,98733.09
2023-02-05T03:57:20.712Z,98736.72
2023-02-05T03:59:48.984Z,98739.13
2023-02-05T04:02:17.117Z,98734.84
2023-02-05T04:04:44.640Z,98743.38
2023-02-05T04:07:11.577Z,98737.34
2023-02-05T04:09:38.026Z,98732.16
2023-02-05T04:12:04.620Z,98733.19
2023-02-05T04:14:31.100Z,98724.47
2023-02-05T04:16:57.644Z,98726.25
2023-02-05T04:19:24.178Z,98730.53
2023-02-05T04:21:50.585Z,98730.88
2023-02-05T04:24:17.085Z,98731.63
2023-02-05T04:26:43.642Z,98740.00
2023-02-05T04:29:10.069Z,98746.06
2023-02-05T04:31:37.480Z,98743.38
2023-02-05T04:34:03.970Z,98739.44
2023-02-05T04:36:30.376Z,98731.28
2023-02-05T04:38:56.779Z,98730.38
2023-02-05T04:41:23.215Z,98729.59
2023-02-05T04:43:49.707Z,98722.88
2023-02-05T04:46:16.360Z,98720.28
2023-02-05T04:48:42.820Z,98730.50
2023-02-05T04:51:11.400Z,98727.19
2023-02-05T04:53:39.222Z,98722.25
2023-02-05T04:56:05.929Z,98727.34
2023-02-05T04:58:32.485Z,98726.50
2023-02-05T05:00:58.987Z,98731.69
2023-02-05T05:03:25.520Z,98734.38
2023-02-05T05:05:52.155Z,98737.19
2023-02-05T05:08:21.600Z,98738.63
2023-02-05T05:10:48.100Z,98729.41
2023-02-05T05:13:14.512Z,98732.94
2023-02-05T05:15:40.970Z,98741.53
2023-02-05T05:18:07.435Z,98753.41
2023-02-05T05:20:33.864Z,98746.63
2023-02-05T05:23:00.866Z,98746.63
2023-02-05T05:25:28.013Z,98750.69
2023-02-05T05:27:54.464Z,98738.84
2023-02-05T05:30:21.000Z,98732.22
2023-02-05T05:32:47.393Z,98739.53
2023-02-05T05:35:13.924Z,98736.44
2023-02-05T05:37:40.318Z,98738.03
2023-02-05T05:40:25.601Z,98742.22
2023-02-05T05:43:10.638Z,98731.16
2023-02-05T05:45:37.148Z,98736.66
2023-02-05T05:48:04.402Z,98742.69
2023-02-05T05:50:30.815Z,98733.56
2023-02-05T05:52:57.208Z,98734.44
2023-02-05T05:55:23.674Z,98729.31
2023-02-05T05:57:50.177Z,98739.56
2023-02-05T06:00:16.990Z,98736.38
2023-02-05T06:02:44.682Z,98730.31
2023-02-05T06:05:11.751Z,98720.84
2023-02-05T06:07:38.195Z,98729.03
2023-02-05T06:10:04.913Z,98736.78
2023-02-05T06:12:31.479Z,98732.34
2023-02-05T06:14:57.938Z,98728.94
2023-02-05T06:17:24.374Z,98730.53
2023-02-05T06:19:50.856Z,98727.41
2023-02-05T06:22:17.265Z,98736.16
2023-02-05T06:24:43.749Z,98748.19
2023-02-05T06:27:10.166Z,98758.56
2023-02-05T06:29:36.584Z,98753.56
2023-02-05T06:32:03.132Z,98762.16
2023-02-05T06:34:29.623Z,98756.84
2023-02-05T06:36:56.293Z,98756.75
2023-02-05T06:39:24.898Z,98748.88
2023-02-05T06:41:51.826Z,98742.81
2023-02-05T06:44:18.240Z,98727.44
2023-02-05T06:46:44.682Z,98724.31
2023-02-05T06:49:11.111Z,98728.16
2023-02-05T06:51:37.533Z,98724.69
2023-02-05T06:54:04.043Z,98739.34
2023-02-05T06:56:30.656Z,98733.44
2023-02-05T06:58:57.034Z,98729.78
2023-02-05T07:01:23.541Z,98730.56
2023-02-05T07:03:54.418Z,98734.78
2023-02-05T07:06:21.384Z,98729.06
2023-02-05T07:08:47.806Z,98741.25
2023-02-05T07:11:14.532Z,98735.88
2023-02-05T07:13:40.992Z,98726.22
2023-02-05T07:16:07.820Z,98722.56
2023-02-05T07:18:34.891Z,98722.34
2023-02-05T07:21:06.845Z,98717.81
2023-02-05T07:23:33.598Z,98721.09
2023-02-05T07:26:07.930Z,98718.53
2023-02-05T07:28:34.350Z,98714.88
2023-02-05T07:31:08.601Z,98716.09
2023-02-05T07:33:36.992Z,98725.81
2023-02-05T07:36:08.290Z,98734.22
2023-02-05T07:38:36.450Z,98731.81
2023-02-05T07:41:08.186Z,98727.56
2023-02-05T07:43:35.552Z,98731.09
2023-02-05T07:46:05.260Z,98730.84
2023-02-05T07:48:32.225Z,98731.91
2023-02-05T07:50:59.111Z,98725.91
2023-02-05T07:53:26.048Z,98716.59
2023-02-05T07:55:52.499Z,98718.72
2023-02-05T07:58:19.325Z,98707.09
2023-02-05T08:00:46.311Z,98710.03
2023-02-05T08:03:13.080Z,98702.47
2023-02-05T08:05:40.236Z,98704.00
2023-02-05T08:08:07.707Z,98704.53
2023-02-05T08:10:35.112Z,98697.03
2023-02-05T08:13:01.599Z,98707.59
2023-02-05T08:15:28.234Z,98700.91
2023-02-05T08:17:54.756Z,98691.59
2023-02-05T08:20:22.233Z,98679.19
2023-02-05T08:22:48.700Z,98686.66
2023-02-05T08:25:16.190Z,98674.56
2023-02-05T08:27:43.303Z,98675.47
2023-02-05T08:30:13.020Z,98677.09
2023-02-05T08:32:39.439Z,98681.53
2023-02-05T08:35:06.301Z,98675.88
2023-02-05T08:37:35.852Z,98669.16
2023-02-05T08:40:02.255Z,98673.66
2023-02-05T08:42:28.731Z,98670.88
2023-02-05T08:44:58.443Z,98668.31
2023-02-05T08:47:26.129Z,98661.66
2023-02-05T08:49:53.713Z,98658.72
2023-02-05T08:52:20.264Z,98660.06
2023-02-05T08:54:48.097Z,98652.31
2023-02-05T08:57:16.326Z,98648.94
2023-02-05T08:59:42.793Z,98632.59
2023-02-05T09:02:14.755Z,98637.09
2023-02-05T09:04:41.184Z,98631.53
2023-02-05T09:07:07.786Z,98631.78
2023-02-05T09:09:35.264Z,98634.41
2023-02-05T09:12:01.669Z,98626.28
2023-02-05T09:14:28.176Z,98620.84
2023-02-05T09:16:54.594Z,98615.13
2023-02-05T09:19:21.012Z,98620.41
2023-02-05T09:21:47.462Z,98620.59
2023-02-05T09:24:14.979Z,98616.63
2023-02-05T09:26:41.568Z,98617.31
2023-02-05T09:29:08.133Z,98623.81
2023-02-05T09:31:34.745Z,98611.19
2023-02-05T09:34:03.277Z,98610.03
2023-02-05T09:36:29.776Z,98606.09
2023-02-05T09:39:11.892Z,98614.63
2023-02-05T09:42:04.554Z,98616.19
2023-02-05T09:44:50.290Z,98612.16
2023-02-05T09:47:38.612Z,98605.78
2023-02-05T09:50:21.455Z,98603.88
2023-02-05T09:52:51.121Z,98612.19
2023-02-05T09:55:24.004Z,98611.34
2023-02-05T09:57:53.491Z,98596.47
2023-02-05T10:00:27.597Z,98603.34
2023-02-05T10:03:07.781Z,98593.56
2023-02-05T10:05:42.977Z,98594.94
2023-02-05T10:08:19.269Z,98588.16
2023-02-05T10:10:50.145Z,98577.09
2023-02-05T10:13:35.007Z,98572.28
2023-02-05T10:16:26.197Z,98569.88
2023-02-05T10:19:14.325Z,98558.97
2023-02-05T10:22:16.272Z,98568.56
2023-02-05T10:25:25.075Z,98557.72
2023-02-05T10:28:06.329Z,98564.63
2023-02-05T10:30:48.695Z,98563.22
2023-02-05T10:33:18.933Z,98557.09
2023-02-05T10:36:05.087Z,98564.25
2023-02-05T10:38:36.023Z,98549.50
2023-02-05T10:41:17.389Z,98541.50
2023-02-05T10:44:15.059Z,98541.88
2023-02-05T10:46:44.014Z,98542.13
2023-02-05T10:49:18.877Z,98547.69
2023-02-05T10:51:46.051Z,98545.72
2023-02-05T10:54:20.550Z,98539.75
2023-02-05T10:56:47.921Z,98535.63
2023-02-05T10:59:27.822Z,98537.91
2023-02-05T11:01:58.233Z,98526.56
2023-02-05T11:04:34.940Z,98527.94
2023-02-05T11:07:06.127Z,98530.19
2023-02-05T11:09:35.326Z,98535.09
2023-02-05T11:12:05.160Z,98526.25
2023-02-05T11:14:40.648Z,98530.22
2023-02-05T11:17:22.264Z,98530.97
2023-02-05T11:20:22.957Z,98538.25
2023-02-05T11:22:49.852Z,98520.59
2023-02-05T11:25:18.165Z,98512.75
2023-02-05T11:27:58.745Z,98515.34
2023-02-05T11:33:26.355Z,98516.16
2023-02-05T11:36:00.090Z,98512.63
2023-02-05T11:38:50.608Z,98500.34
2023-02-05T11:41:32.070Z,98506.22
2023-02-05T11:44:03.961Z,98503.69
2023-02-05T11:46:34.823Z,98505.94
2023-02-05T11:49:03.331Z,98498.66
2023-02-05T11:51:34.599Z,98497.66
2023-02-05T11:54:09.102Z,98482.09
2023-02-05T11:56:35.596Z,98489.28
2023-02-05T11:59:05.606Z,98495.34
2023-02-05T12:01:36.201Z,98485.03
2023-02-05T12:04:11.787Z,98489.22
2023-02-05T12:06:50.041Z,98485.25
2023-02-05T12:09:21.445Z,98498.06
2023-02-05T12:12:18.503Z,98500.00
2023-02-05T12:14:56.354Z,98496.50
2023-02-05T12:17:34.311Z,98484.75
2023-02-05T12:20:19.429Z,98481.34
2023-02-05T12:23:28.835Z,98478.41
2023-02-05T12:26:26.417Z,98468.19
2023-02-05T12:29:24.480Z,98464.00
2023-02-05T12:31:59.779Z,98457.41
2023-02-05T12:34:38.565Z,98462.84
2023-02-05T12:37:42.937Z,98468.28
2023-02-05T12:40:34.213Z,98464.00
2023-02-05T12:43:40.967Z,98462.25
2023-02-05T12:46:28.825Z,98465.66
2023-02-05T12:49:20.656Z,98464.44
2023-02-05T12:52:05.709Z,98458.47
2023-02-05T12:54:55.163Z,98452.59
2023-02-05T12:57:34.010Z,98448.50
2023-02-05T13:00:11.768Z,98452.28
2023-02-05T13:02:47.841Z,98449.63
2023-02-05T13:05:34.674Z,98443.66
2023-02-05T13:08:21.063Z,98433.50
2023-02-05T13:10:54.915Z,98428.81
2023-02-05T13:13:28.003Z,98431.06
2023-02-05T13:16:03.894Z,98426.00
2023-02-05T13:18:35.455Z,98433.88
2023-02-05T13:21:24.895Z,98429.63
2023-02-05T13:24:26.617Z,98433.25
2023-02-05T13:27:12.015Z,98426.13
2023-02-05T13:29:51.403Z,98418.44
2023-02-05T13:32:23.516Z,98426.97
2023-02-05T13:34:55.063Z,98432.84
2023-02-05T13:37:53.242Z,98435.72
2023-02-05T13:40:44.369Z,98428.16
2023-02-05T13:43:16.997Z,98426.41
2023-02-05T13:46:22.976Z,98433.09
2023-02-05T13:49:32.593Z,98437.88
2023-02-05T13:52:27.758Z,98431.84
2023-02-05T13:55:15.387Z,98438.72
2023-02-05T13:58:09.891Z,98435.28
2023-02-05T14:00:40.267Z,98441.72
2023-02-05T14:03:21.573Z,98440.56
2023-02-05T14:05:48.047Z,98440.91
2023-02-05T14:08:23.089Z,98439.53
2023-02-05T14:10:59.051Z,98448.50
2023-02-05T14:13:34.646Z,98447.09
2023-02-05T14:16:26.115Z,98439.81
2023-02-05T14:19:29.579Z,98438.72
2023-02-05T14:22:03.245Z,98441.41
2023-02-05T14:24:44.152Z,98446.25
2023-02-05T14:27:39.709Z,98442.03
2023-02-05T14:30:30.873Z,98449.94
2023-02-05T14:33:03.778Z,98447.50
2023-02-05T14:35:39.888Z,98454.97
2023-02-05T14:38:23.316Z,98455.28
2023-02-05T14:41:11.940Z,98455.63
2023-02-05T14:43:43.447Z,98457.91
2023-02-05T14:46:30.141Z,98455.69
2023-02-05T14:48:59.785Z,98454.38
2023-02-05T14:51:32.140Z,98462.06
2023-02-05T14:54:23.597Z,98468.03
2023-02-05T14:56:54.098Z,98450.78
2023-02-05T14:59:29.353Z,98458.88
2023-02-05T15:01:57.368Z,98461.47
2023-02-05T15:04:46.051Z,98457.47
2023-02-05T15:07:21.318Z,98458.72
2023-02-05T15:10:03.917Z,98456.69
2023-02-05T15:12:33.124Z,98461.97
2023-02-05T15:15:27.827Z,98476.47
2023-02-05T15:17:59.035Z,98478.16
2023-02-05T15:20:32.248Z,98478.47
2023-02-05T15:23:11.179Z,98475.44
2023-02-05T15:25:50.574Z,98488.34
2023-02-05T15:28:48.836Z,98486.16
2023-02-05T15:31:29.006Z,98484.44
2023-02-05T15:34:08.008Z,98484.09
2023-02-05T15:36:41.392Z,98483.66
2023-02-05T15:39:36.173Z,98472.75
2023-02-05T15:42:05.033Z,98481.22
2023-02-05T15:44:34.876Z,98479.38
2023-02-05T15:47:05.356Z,98473.22
2023-02-05T15:49:36.698Z,98490.28
2023-02-05T15:52:04.531Z,98490.38
2023-02-05T15:54:33.734Z,98486.25
2023-02-05T15:57:00.383Z,98485.91
2023-02-05T15:59:30.320Z,98489.25
2023-02-05T16:02:08.926Z,98495.81
2023-02-05T16:04:40.141Z,98488.31
2023-02-05T16:07:18.858Z,98491.88
2023-02-05T16:09:52.840Z,98483.66
2023-02-05T16:12:21.108Z,98487.66
2023-02-05T16:15:07.415Z,98486.84
2023-02-05T16:17:48.230Z,98485.94
2023-02-05T16:20:15.617Z,98490.50
2023-02-05T16:22:52.614Z,98497.91
2023-02-05T16:25:28.198Z,98489.06
2023-02-05T16:27:57.199Z,98499.03
2023-02-05T16:30:46.281Z,98500.94
2023-02-05T16:33:20.550Z,98487.97
2023-02-05T16:35:48.714Z,98491.50
2023-02-05T16:38:18.649Z,98497.94
2023-02-05T16:40:48.888Z,98501.38
2023-02-05T16:43:36.242Z,98502.00
2023-02-05T16:46:08.555Z,98508.84
2023-02-05T16:48:41.676Z,98497.19
2023-02-05T16:51:28.366Z,98509.28
2023-02-05T16:53:54.806Z,98508.53
2023-02-05T16:56:30.050Z,98513.84
2023-02-05T16:58:59.428Z,98522.88
2023-02-05T17:01:29.373Z,98518.00
2023-02-05T17:03:56.718Z,98500.22
2023-02-05T17:06:23.549Z,98516.03
2023-02-05T17:08:52.890Z,98522.19
2023-02-05T17:11:37.488Z,98539.13
2023-02-05T17:14:35.639Z,98533.50
2023-02-05T17:17:14.702Z,98532.00
2023-02-05T17:19:41.181Z,98536.56
2023-02-05T17:22:14.652Z,98545.88
2023-02-05T17:24:52.138Z,98548.97
2023-02-05T17:27:32.594Z,98553.84
2023-02-05T17:30:00.184Z,98548.94
2023-02-05T17:32:28.483Z,98551.66
2023-02-05T17:34:55.290Z,98553.47
2023-02-05T17:37:22.286Z,98568.34
2023-02-05T17:39:51.438Z,98576.16
2023-02-05T17:42:27.049Z,98571.91
2023-02-05T17:44:53.776Z,98569.75
2023-02-05T17:47:20.484Z,98570.66
2023-02-05T17:49:47.391Z,98569.09
2023-02-05T17:52:15.469Z,98558.41
2023-02-05T17:54:42.541Z,98573.03
2023-02-05T17:57:18.634Z,98568.34
2023-02-05T17:59:45.604Z,98574.09
2023-02-05T18:02:14.232Z,98569.88
2023-02-05T18:04:42.220Z,98570.59
2023-02-05T18:07:36.702Z,98567.88
2023-02-05T18:10:03.880Z,98565.16
2023-02-05T18:12:30.632Z,98574.00
2023-02-05T18:14:58.214Z,98582.16
2023-02-05T18:17:24.889Z,98579.31
2023-02-05T18:19:51.350Z,98577.75
2023-02-05T18:22:17.850Z,98580.97
2023-02-05T18:24:44.362Z,98575.00
2023-02-05T18:27:12.124Z,98571.03
2023-02-05T18:29:39.328Z,98579.09
2023-02-05T18:32:06.836Z,98581.56
2023-02-05T18:34:33.569Z,98573.66
2023-02-05T18:37:00.286Z,98575.69
2023-02-05T18:39:28.527Z,98582.84
2023-02-05T18:41:56.035Z,98596.94
2023-02-05T18:44:22.904Z,98598.38
2023-02-05T18:46:49.765Z,98603.72
2023-02-05T18:49:16.346Z,98590.63
2023-02-05T18:51:43.711Z,98611.88
2023-02-05T18:54:10.298Z,98603.41
2023-02-05T18:56:37.333Z,98614.09
2023-02-05T18:59:07.191Z,98615.69
2023-02-05T19:01:37.081Z,98617.69
2023-02-05T19:04:08.713Z,98616.38
2023-02-05T19:06:36.859Z,98609.97
2023-02-05T19:09:04.289Z,98623.78
2023-02-05T19:11:31.112Z,98618.59
2023-02-05T19:14:03.365Z,98631.13
2023-02-05T19:16:32.070Z,98631.88
2023-02-05T19:18:58.823Z,98632.59
2023-02-05T19:21:30.592Z,98627.91
2023-02-05T19:24:05.201Z,98626.88
2023-02-05T19:26:33.121Z,98630.69
2023-02-05T19:29:01.897Z,98633.41
2023-02-05T19:31:30.672Z,98636.78
2023-02-05T19:33:57.561Z,98633.13
2023-02-05T19:36:25.297Z,98644.53
2023-02-05T19:38:52.353Z,98638.78
2023-02-05T19:41:22.128Z,98638.28
2023-02-05T19:44:02.175Z,98642.03
2023-02-05T19:46:31.759Z,98648.91
2023-02-05T19:49:04.185Z,98661.00
2023-02-05T19:51:30.830Z,98648.69
2023-02-05T19:53:58.230Z,98642.81
2023-02-05T19:56:25.403Z,98649.94
2023-02-05T19:58:54.243Z,98656.81
2023-02-05T20:01:23.794Z,98655.53
2023-02-05T20:03:51.679Z,98663.56
2023-02-05T20:06:20.342Z,98665.75
2023-02-05T20:08:47.608Z,98668.31
2023-02-05T20:11:15.031Z,98675.19
2023-02-05T20:13:42.678Z,98671.19
2023-02-05T20:16:16.496Z,98680.66
2023-02-05T20:18:44.137Z,98692.16
2023-02-05T20:21:12.974Z,98685.97
2023-02-05T20:23:40.018Z,98691.03
2023-02-05T20:26:07.915Z,98689.25
2023-02-05T20:28:59.433Z,98676.44
2023-02-05T20:31:37.989Z,98680.38
2023-02-05T20:34:09.601Z,98698.81
2023-02-05T20:36:37.799Z,98704.53
2023-02-05T20:39:07.230Z,98703.72
2023-02-05T20:41:34.299Z,98707.91
2023-02-05T20:44:01.295Z,98708.69
2023-02-05T20:46:27.878Z,98712.66
2023-02-05T20:48:54.396Z,98708.38
2023-02-05T20:51:22.732Z,98721.56
2023-02-05T20:53:49.654Z,98720.81
2023-02-05T20:56:19.404Z,98718.28
2023-02-05T20:58:46.796Z,98714.06
2023-02-05T21:01:19.325Z,98713.41
2023-02-05T21:03:49.614Z,98719.19
2023-02-05T21:06:18.869Z,98714.16
2023-02-05T21:08:47.839Z,98716.75
2023-02-05T21:11:16.582Z,98706.69
2023-02-05T21:13:44.834Z,98712.63
2023-02-05T21:16:13.690Z,98709.22
2023-02-05T21:18:40.575Z,98701.25
2023-02-05T21:21:14.575Z,98702.09
2023-02-05T21:23:41.748Z,98702.44
2023-02-05T21:26:09.050Z,98711.13
2023-02-05T21:28:35.506Z,98720.19
2023-02-05T21:31:08.442Z,98726.34
2023-02-05T21:33:35.936Z,98744.59
2023-02-05T21:36:05.001Z,98732.69
2023-02-05T21:38:35.297Z,98749.22
2023-02-05T21:41:15.555Z,98739.97
2023-02-05T21:43:42.455Z,98730.63
2023-02-05T21:46:12.990Z,98734.50
2023-02-05T21:48:39.861Z,98733.03
2023-02-05T21:51:08.876Z,98736.31
2023-02-05T21:53:35.733Z,98735.59
2023-02-05T21:56:04.224Z,98743.88
2023-02-05T21:58:32.510Z,98744.91
2023-02-05T22:01:16.241Z,98753.75
2023-02-05T22:03:44.073Z,98756.03
2023-02-05T22:06:10.483Z,98750.88
2023-02-05T22:08:38.733Z,98741.66
2023-02-05T22:11:08.080Z,98756.66
2023-02-05T22:13:37.520Z,98753.50
2023-02-05T22:16:06.518Z,98755.13
2023-02-05T22:18:34.013Z,98765.19
2023-02-05T22:21:16.460Z,98774.09
2023-02-05T22:23:45.007Z,98774.75
2023-02-05T22:26:12.129Z,98774.75
2023-02-05T22:28:38.810Z,98786.19
2023-02-05T22:31:11.431Z,98782.91
2023-02-05T22:33:39.820Z,98790.75
2023-02-05T22:36:08.661Z,98803.56
2023-02-05T22:38:37.288Z,98805.34
2023-02-05T22:41:12.017Z,98807.06
2023-02-05T22:43:39.417Z,98815.88
2023-02-05T22:46:17.091Z,98819.50
2023-02-05T22:48:46.164Z,98827.41
2023-02-05T22:51:18.746Z,98823.13
2023-02-05T22:53:45.335Z,98830.75
2023-02-05T22:56:13.209Z,98834.91
2023-02-05T22:58:41.829Z,98832.16
2023-02-05T23:01:15.416Z,98824.78
2023-02-05T23:03:44.142Z,98822.81
2023-02-05T23:06:15.703Z,98815.00
2023-02-05T23:08:42.613Z,98827.47
2023-02-05T23:11:12.911Z,98836.28
2023-02-05T23:13:43.195Z,98836.03
2023-02-05T23:16:14.803Z,98826.78
2023-02-05T23:18:41.987Z,98829.47
2023-02-05T23:21:14.556Z,98841.66
2023-02-05T23:23:41.530Z,98846.06
2023-02-05T23:26:21.887Z,98857.16
2023-02-05T23:28:49.569Z,98859.47
2023-02-05T23:31:16.759Z,98859.34
2023-02-05T23:33:43.353Z,98860.22
2023-02-05T23:36:10.345Z,98856.81
2023-02-05T23:38:37.182Z,98856.22
2023-02-05T23:41:04.357Z,98863.84
2023-02-05T23:43:32.258Z,98864.84
2023-02-05T23:45:59.013Z,98869.84
2023-02-05T23:48:25.472Z,98871.31
2023-02-05T23:50:53.667Z,98870.44
2023-02-05T23:53:21.145Z,98879.16
2023-02-05T23:55:49.494Z,98879.16
2023-02-05T23:58:17.315Z,98873.88
